Time;durP1;ratioP1;P1;durP2;ratioP2;P2;SDS_P1;SDS_P2;PMS_P1;PMS_P2;Temp;Humidity;BMP_temperature;BMP_pressure;BME280_temperature;BME280_humidity;BME280_pressure;Samples;Min_cycle;Max_cycle;Signal;HPM_P1;HPM_P2
2022/02/13 00:01:36;;;;;;;10.35;5.43;;;;;;;-149.78;100.00;50397.13;5033982;28;20029;-61
2022/02/13 00:04:03;;;;;;;10.15;5.65;;;;;;;-149.78;100.00;50408.84;5033101;28;20040;-61
2022/02/13 00:06:28;;;;;;;11.38;5.85;;;;;;;-149.78;100.00;50428.41;5033675;28;20354;-61
2022/02/13 00:08:54;;;;;;;11.57;6.25;;;;;;;-149.78;100.00;50404.94;5037029;28;20099;-62
2022/02/13 00:11:21;;;;;;;12.20;5.95;;;;;;;-149.78;100.00;50440.16;5033405;28;20044;-62
2022/02/13 00:13:47;;;;;;;13.25;5.95;;;;;;;-149.78;100.00;50430.38;5034167;28;20051;-62
2022/02/13 00:16:14;;;;;;;11.20;6.32;;;;;;;-149.78;100.00;50422.56;5034833;28;20045;-61
2022/02/13 00:18:40;;;;;;;11.65;6.13;;;;;;;-149.78;100.00;50420.59;5033299;28;20034;-62
2022/02/13 00:21:06;;;;;;;12.70;5.97;;;;;;;-149.78;100.00;50428.41;5041929;28;20096;-61
2022/02/13 00:23:31;;;;;;;12.32;5.90;;;;;;;-149.78;100.00;50436.25;5032813;28;20029;-61
2022/02/13 00:25:57;;;;;;;10.25;5.32;;;;;;;-149.78;100.00;50424.50;5037851;28;20041;-62
2022/02/13 00:28:22;;;;;;;10.05;5.45;;;;;;;-149.78;100.00;50412.78;5033592;28;20084;-62
2022/02/13 00:30:48;;;;;;;10.25;5.32;;;;;;;-149.78;100.00;50397.13;5045564;28;20029;-61
2022/02/13 00:33:16;;;;;;;12.10;5.97;;;;;;;-149.78;100.00;50416.69;5038237;28;20046;-62
2022/02/13 00:35:42;;;;;;;9.45;4.78;;;;;;;-149.78;100.00;50404.94;5041910;28;20040;-62
2022/02/13 00:38:09;;;;;;;10.35;4.95;;;;;;;-149.78;100.00;50410.81;5045786;28;20088;-62
2022/02/13 00:40:35;;;;;;;10.50;5.05;;;;;;;-149.78;100.00;50420.59;5039108;28;20029;-62
2022/02/13 00:43:01;;;;;;;9.38;4.93;;;;;;;-149.78;100.00;50406.91;5053065;28;20111;-61
2022/02/13 00:45:26;;;;;;;10.93;5.05;;;;;;;-149.78;100.00;50432.31;5044772;28;20037;-62
2022/02/13 00:47:52;;;;;;;10.18;5.35;;;;;;;-149.78;100.00;50424.50;5049034;28;20101;-62
2022/02/13 00:50:17;;;;;;;13.77;5.90;;;;;;;-149.78;100.00;50426.47;5035525;28;20129;-62
2022/02/13 00:52:44;;;;;;;9.70;5.10;;;;;;;-149.78;100.00;50430.38;5032673;28;20501;-62
2022/02/13 00:55:10;;;;;;;9.52;5.28;;;;;;;-149.78;100.00;50447.97;5039162;28;20044;-61
2022/02/13 00:57:35;;;;;;;10.27;4.70;;;;;;;-149.78;100.00;50420.59;5043595;28;20508;-62
2022/02/13 01:00:03;;;;;;;9.18;4.90;;;;;;;-149.78;100.00;50403.00;5033503;28;20040;-61
2022/02/13 01:02:29;;;;;;;9.27;4.72;;;;;;;-149.78;100.00;50414.72;5032456;28;20029;-62
2022/02/13 01:04:54;;;;;;;9.60;4.50;;;;;;;-149.78;100.00;50459.72;5048905;28;20495;-61
2022/02/13 01:07:20;;;;;;;8.63;4.30;;;;;;;-149.78;100.00;50406.91;5053187;28;20037;-61
2022/02/13 01:09:46;;;;;;;7.55;4.10;;;;;;;-149.78;100.00;50401.03;5046009;28;20104;-61
2022/02/13 01:12:12;;;;;;;7.93;3.90;;;;;;;-149.78;100.00;50397.13;5033362;28;20384;-62
2022/02/13 01:14:37;;;;;;;8.95;3.80;;;;;;;-149.78;100.00;50434.28;5034426;28;20038;-61
2022/02/13 01:17:03;;;;;;;7.80;4.15;;;;;;;-149.78;100.00;50438.19;5039224;28;20363;-61
2022/02/13 01:19:29;;;;;;;6.22;3.35;;;;;;;-149.78;100.00;50385.38;5043763;28;20103;-62
2022/02/13 01:21:55;;;;;;;7.22;3.50;;;;;;;-149.78;100.00;50414.72;5048290;28;20108;-61
2022/02/13 01:24:21;;;;;;;7.00;3.78;;;;;;;-149.78;100.00;50408.84;5040799;28;20033;-62
2022/02/13 01:26:46;;;;;;;6.05;3.40;;;;;;;-149.78;100.00;50432.31;5033273;28;20068;-61
2022/02/13 01:29:12;;;;;;;7.18;3.75;;;;;;;-149.78;100.00;50420.59;5040155;28;20358;-61
2022/02/13 01:31:39;;;;;;;8.77;3.95;;;;;;;-149.78;100.00;50428.41;5045286;28;20080;-61
2022/02/13 01:34:05;;;;;;;9.48;4.60;;;;;;;-149.78;100.00;50416.69;5038982;28;20040;-62
2022/02/13 01:36:31;;;;;;;6.35;3.83;;;;;;;-149.78;100.00;50428.41;5037552;28;20037;-62
2022/02/13 01:38:57;;;;;;;8.77;4.30;;;;;;;-149.78;100.00;50424.50;5036622;28;20033;-62
2022/02/13 01:41:23;;;;;;;7.35;3.80;;;;;;;-149.78;100.00;50444.06;5052239;28;20048;-61
2022/02/13 01:43:48;;;;;;;8.00;4.00;;;;;;;-149.78;100.00;50412.78;5049891;28;20041;-62
2022/02/13 01:46:14;;;;;;;6.82;3.45;;;;;;;-149.78;100.00;50455.81;5051713;28;20040;-62
2022/02/13 01:48:40;;;;;;;8.02;3.63;;;;;;;-149.78;100.00;50414.72;5036571;28;20048;-62
2022/02/13 01:51:07;;;;;;;8.70;4.20;;;;;;;-149.78;100.00;50447.97;5032777;28;20049;-62
2022/02/13 01:53:33;;;;;;;9.15;4.32;;;;;;;-149.78;100.00;50397.13;5045513;28;20041;-62
2022/02/13 01:56:00;;;;;;;9.30;4.22;;;;;;;-149.78;100.00;50404.94;5034598;28;20201;-62
2022/02/13 01:58:28;;;;;;;12.35;4.78;;;;;;;-149.78;100.00;50412.78;5042174;28;20048;-62
2022/02/13 02:00:54;;;;;;;11.27;5.82;;;;;;;-149.78;100.00;50436.25;5052391;28;20119;-62
2022/02/13 02:03:20;;;;;;;12.43;5.10;;;;;;;-149.78;100.00;50475.34;5038893;28;20034;-62
2022/02/13 02:05:46;;;;;;;12.35;5.90;;;;;;;-149.78;100.00;50397.13;5051247;28;20044;-62
2022/02/13 02:08:12;;;;;;;13.57;6.22;;;;;;;-149.78;100.00;50432.31;5041799;28;20135;-61
2022/02/13 02:10:38;;;;;;;13.15;6.00;;;;;;;-149.78;100.00;50440.16;5036004;28;20051;-62
2022/02/13 02:13:04;;;;;;;11.55;6.03;;;;;;;-149.78;100.00;50424.50;5018618;28;20042;-62
2022/02/13 02:15:30;;;;;;;12.75;6.03;;;;;;;-149.78;100.00;50436.25;5042521;28;20110;-62
2022/02/13 02:17:55;;;;;;;12.48;5.03;;;;;;;-149.78;100.00;50393.22;5043505;28;20115;-62
2022/02/13 02:20:21;;;;;;;11.32;4.60;;;;;;;-149.78;100.00;50408.84;5041620;28;20083;-62
2022/02/13 02:22:54;;;;;;;6.60;3.47;;;;;;;-149.78;100.00;50412.78;5046294;28;20036;-62
2022/02/13 02:25:20;;;;;;;7.93;3.85;;;;;;;-149.78;100.00;50412.78;5053552;28;20091;-62
2022/02/13 02:27:46;;;;;;;6.00;3.22;;;;;;;-149.78;100.00;50385.38;5054442;28;20049;-62
2022/02/13 02:30:12;;;;;;;5.07;2.78;;;;;;;-149.78;100.00;50414.72;5043840;28;20112;-66
2022/02/13 02:32:38;;;;;;;4.47;2.45;;;;;;;-149.78;100.00;50397.13;5037718;28;20377;-66
2022/02/13 02:35:05;;;;;;;5.10;2.80;;;;;;;-149.78;100.00;50436.25;5035254;28;20033;-66
2022/02/13 02:37:31;;;;;;;3.90;2.30;;;;;;;-149.78;100.00;50416.69;5054900;28;20064;-66
2022/02/13 02:39:57;;;;;;;5.78;2.72;;;;;;;-149.78;100.00;50451.88;5050210;28;20033;-66
2022/02/13 02:42:23;;;;;;;5.40;1.95;;;;;;;-149.78;100.00;50404.94;5046106;28;20084;-66
2022/02/13 02:44:49;;;;;;;4.25;2.38;;;;;;;-149.78;100.00;50385.38;5054080;28;20032;-66
2022/02/13 02:47:14;;;;;;;3.53;2.13;;;;;;;-149.78;100.00;50440.16;5039233;28;20030;-66
2022/02/13 02:49:40;;;;;;;4.32;2.25;;;;;;;-149.78;100.00;50432.31;5035270;28;20033;-66
2022/02/13 02:52:06;;;;;;;4.50;2.33;;;;;;;-149.78;100.00;50408.84;5055327;28;20056;-66
2022/02/13 02:54:33;;;;;;;5.20;2.33;;;;;;;-149.78;100.00;50436.25;5049091;28;20420;-66
2022/02/13 02:56:59;;;;;;;3.75;2.00;;;;;;;-149.78;100.00;50451.88;5039854;28;20060;-66
2022/02/13 02:59:24;;;;;;;3.03;1.80;;;;;;;-149.78;100.00;50397.13;5035084;28;20127;-66
2022/02/13 03:01:50;;;;;;;2.90;1.90;;;;;;;-149.78;100.00;50397.13;5034674;28;20473;-66
2022/02/13 03:04:16;;;;;;;3.05;1.88;;;;;;;-149.78;100.00;50416.69;5036425;28;20485;-66
2022/02/13 03:06:42;;;;;;;2.60;1.50;;;;;;;-149.78;100.00;50420.59;5055406;28;20079;-66
2022/02/13 03:09:09;;;;;;;3.28;1.70;;;;;;;-149.78;100.00;50414.72;5051916;28;20045;-66
2022/02/13 03:11:36;;;;;;;3.17;1.80;;;;;;;-149.78;100.00;50385.38;5035047;28;20049;-66
2022/02/13 03:14:01;;;;;;;2.75;1.63;;;;;;;-149.78;100.00;50418.63;5035225;28;20033;-66
2022/02/13 03:16:27;;;;;;;4.18;2.00;;;;;;;-149.78;100.00;50440.16;5050083;28;20063;-67
2022/02/13 03:18:53;;;;;;;5.43;1.60;;;;;;;-149.78;100.00;50404.94;5053531;28;20457;-66
2022/02/13 03:21:18;;;;;;;2.17;1.38;;;;;;;-149.78;100.00;50432.31;5033987;28;20033;-62
2022/02/13 03:23:44;;;;;;;2.78;1.63;;;;;;;-149.78;100.00;50428.41;5035080;28;20489;-62
2022/02/13 03:26:09;;;;;;;3.88;1.95;;;;;;;-149.78;100.00;50436.25;5035565;28;20136;-62
2022/02/13 03:28:35;;;;;;;4.38;2.10;;;;;;;-149.78;100.00;50475.34;5034894;28;20030;-62
2022/02/13 03:31:01;;;;;;;4.13;2.03;;;;;;;-149.78;100.00;50459.72;5050181;28;20474;-62
2022/02/13 03:33:27;;;;;;;3.90;2.13;;;;;;;-149.78;100.00;50406.91;5036541;28;20475;-62
2022/02/13 03:35:52;;;;;;;4.65;2.38;;;;;;;-149.78;100.00;50428.41;5047914;28;20033;-62
2022/02/13 03:38:18;;;;;;;4.80;2.47;;;;;;;-149.78;100.00;50420.59;5051979;28;20128;-62
2022/02/13 03:40:44;;;;;;;6.20;2.50;;;;;;;-149.78;100.00;50416.69;5046376;28;20033;-62
2022/02/13 03:43:10;;;;;;;5.85;2.67;;;;;;;-149.78;100.00;50389.31;5035947;28;20032;-62
2022/02/13 03:45:35;;;;;;;4.30;2.38;;;;;;;-149.78;100.00;50403.00;5040473;28;20431;-62
2022/02/13 03:48:02;;;;;;;5.15;2.47;;;;;;;-149.78;100.00;50403.00;5034605;28;20110;-62
2022/02/13 03:50:29;;;;;;;5.70;2.92;;;;;;;-149.78;100.00;50408.84;5043190;28;20495;-62
2022/02/13 03:52:55;;;;;;;6.40;3.17;;;;;;;-149.78;100.00;50381.47;5045043;28;20479;-62
2022/02/13 03:55:20;;;;;;;6.45;3.35;;;;;;;-149.78;100.00;50416.69;5042401;28;20037;-62
2022/02/13 03:57:46;;;;;;;6.70;3.30;;;;;;;-149.78;100.00;50424.50;5048971;28;20041;-62
2022/02/13 04:00:13;;;;;;;6.25;3.03;;;;;;;-149.78;100.00;50447.97;5033922;28;20041;-62
2022/02/13 04:02:40;;;;;;;6.47;3.38;;;;;;;-149.78;100.00;50416.69;5040732;28;20387;-62
2022/02/13 04:05:06;;;;;;;6.03;2.92;;;;;;;-149.78;100.00;50397.13;5042494;28;20032;-62
2022/02/13 04:07:33;;;;;;;6.50;3.15;;;;;;;-149.78;100.00;50408.84;5054344;28;20037;-66
2022/02/13 04:09:59;;;;;;;6.10;2.97;;;;;;;-149.78;100.00;50436.25;5042456;28;20037;-61
2022/02/13 04:12:24;;;;;;;6.97;2.85;;;;;;;-149.78;100.00;50436.25;5032815;28;20052;-66
2022/02/13 04:14:52;;;;;;;4.88;2.58;;;;;;;-149.78;100.00;50424.50;5036773;28;20057;-66
2022/02/13 04:17:18;;;;;;;5.60;2.30;;;;;;;-149.78;100.00;50432.31;5042068;28;20173;-66
2022/02/13 04:19:44;;;;;;;3.53;1.92;;;;;;;-149.78;100.00;50412.78;5032916;28;20040;-66
2022/02/13 04:22:11;;;;;;;2.97;1.63;;;;;;;-149.78;100.00;50424.50;5032330;28;20048;-67
2022/02/13 04:24:36;;;;;;;2.22;1.40;;;;;;;-149.78;100.00;50412.78;5034727;28;20496;-66
2022/02/13 04:27:02;;;;;;;1.98;1.02;;;;;;;-149.78;100.00;50438.19;5052213;28;20053;-66
2022/02/13 04:29:28;;;;;;;1.20;0.93;;;;;;;-149.78;100.00;50412.78;5036712;28;20040;-66
2022/02/13 04:31:53;;;;;;;0.70;0.70;;;;;;;-149.78;100.00;50436.25;5050026;28;20037;-66
2022/02/13 04:34:19;;;;;;;1.42;0.90;;;;;;;-149.78;100.00;50447.97;5033780;28;20039;-66
2022/02/13 04:36:44;;;;;;;0.70;0.70;;;;;;;-149.78;100.00;50404.94;5050370;28;20519;-66
2022/02/13 04:39:10;;;;;;;0.82;0.77;;;;;;;-149.78;100.00;50397.13;5040305;28;20041;-66
2022/02/13 04:41:36;;;;;;;2.10;1.23;;;;;;;-149.78;100.00;50404.94;5048638;28;20033;-66
2022/02/13 04:44:01;;;;;;;2.25;1.40;;;;;;;-149.78;100.00;50412.78;5044780;28;20024;-66
2022/02/13 04:46:28;;;;;;;2.78;1.50;;;;;;;-149.78;100.00;50401.03;5040747;28;20163;-62
2022/02/13 04:48:53;;;;;;;3.47;2.08;;;;;;;-149.78;100.00;50381.47;5049969;28;20041;-62
2022/02/13 04:51:19;;;;;;;4.82;2.33;;;;;;;-149.78;100.00;50399.09;5050864;28;20024;-61
2022/02/13 04:53:44;;;;;;;4.32;2.30;;;;;;;-149.78;100.00;50436.25;5043105;28;20037;-62
2022/02/13 04:56:10;;;;;;;4.03;2.38;;;;;;;-149.78;100.00;50389.31;5044683;28;20045;-62
2022/02/13 04:58:36;;;;;;;5.32;2.42;;;;;;;-149.78;100.00;50426.47;5043773;28;20128;-62
2022/02/13 05:01:01;;;;;;;5.07;2.13;;;;;;;-149.78;100.00;50391.25;5036733;28;20037;-62
2022/02/13 05:03:27;;;;;;;4.93;2.30;;;;;;;-149.78;100.00;50408.84;5033899;28;20118;-62
2022/02/13 05:05:54;;;;;;;4.43;2.10;;;;;;;-149.78;100.00;50432.31;5047541;28;20083;-62
2022/02/13 05:08:21;;;;;;;3.17;1.80;;;;;;;-149.78;100.00;50440.16;5033600;28;20080;-62
2022/02/13 05:10:47;;;;;;;3.55;1.77;;;;;;;-149.78;100.00;50399.09;5031944;28;20032;-61
2022/02/13 05:13:14;;;;;;;3.20;1.67;;;;;;;-149.78;100.00;50401.03;5033272;28;20046;-62
2022/02/13 05:15:40;;;;;;;2.67;1.58;;;;;;;-149.78;100.00;50420.59;5033036;28;20041;-62
2022/02/13 05:18:06;;;;;;;3.17;1.83;;;;;;;-149.78;100.00;50404.94;5034387;28;20116;-62
2022/02/13 05:20:32;;;;;;;3.17;1.30;;;;;;;-149.78;100.00;50404.94;5039847;28;20042;-62
2022/02/13 05:22:57;;;;;;;2.50;1.70;;;;;;;-149.78;100.00;50426.47;5046263;28;20033;-62
2022/02/13 05:25:24;;;;;;;2.83;1.55;;;;;;;-149.78;100.00;50416.69;5053032;28;20384;-62
2022/02/13 05:27:50;;;;;;;2.58;1.55;;;;;;;-149.78;100.00;50457.75;5035645;28;20128;-62
2022/02/13 05:30:16;;;;;;;3.03;1.60;;;;;;;-149.78;100.00;50432.31;5043381;28;20046;-62
2022/02/13 05:32:42;;;;;;;3.63;1.98;;;;;;;-149.78;100.00;50391.25;5037596;28;20036;-62
2022/02/13 05:35:08;;;;;;;5.20;2.35;;;;;;;-149.78;100.00;50412.78;5032744;28;20053;-62
2022/02/13 05:37:34;;;;;;;5.15;2.28;;;;;;;-149.78;100.00;50426.47;5034223;28;20094;-62
2022/02/13 05:39:59;;;;;;;3.72;2.55;;;;;;;-149.78;100.00;50426.47;5041540;28;20120;-62
2022/02/13 05:42:26;;;;;;;5.38;2.72;;;;;;;-149.78;100.00;50389.31;5044272;28;20115;-62
2022/02/13 05:44:52;;;;;;;5.10;2.85;;;;;;;-149.78;100.00;50385.38;5052128;28;20044;-62
2022/02/13 05:47:18;;;;;;;4.35;2.53;;;;;;;-149.78;100.00;50414.72;5047130;28;20124;-62
2022/02/13 05:49:44;;;;;;;3.88;2.22;;;;;;;-149.78;100.00;50424.50;5052515;28;20539;-62
2022/02/13 05:52:10;;;;;;;5.28;2.60;;;;;;;-149.78;100.00;50447.97;5037907;28;20046;-61
2022/02/13 05:54:35;;;;;;;5.35;2.38;;;;;;;-149.78;100.00;50412.78;5036562;28;20037;-62
2022/02/13 05:57:02;;;;;;;6.97;2.22;;;;;;;-149.78;100.00;50416.69;5048169;28;20128;-62
2022/02/13 05:59:28;;;;;;;6.05;2.60;;;;;;;-149.78;100.00;50430.38;5036268;28;20053;-62
2022/02/13 06:01:55;;;;;;;5.15;2.42;;;;;;;-149.78;100.00;50401.03;5049373;28;20025;-62
2022/02/13 06:04:22;;;;;;;6.68;2.60;;;;;;;-149.78;100.00;50422.56;5041534;28;20033;-62
2022/02/13 06:06:52;;;;;;;5.78;2.75;;;;;;;-149.78;100.00;50432.31;5045280;28;20055;-62
2022/02/13 06:09:19;;;;;;;3.72;2.50;;;;;;;-149.78;100.00;50424.50;5036681;28;20155;-62
2022/02/13 06:11:45;;;;;;;4.45;2.85;;;;;;;-149.78;100.00;50424.50;5035438;28;20049;-62
2022/02/13 06:14:11;;;;;;;7.97;2.90;;;;;;;-149.78;100.00;50381.47;5036210;28;20045;-62
2022/02/13 06:16:37;;;;;;;8.70;2.40;;;;;;;-149.78;100.00;50428.41;5035130;28;20048;-62
2022/02/13 06:19:03;;;;;;;8.32;3.25;;;;;;;-149.78;100.00;50404.94;5039277;28;20048;-62
2022/02/13 06:21:29;;;;;;;6.78;2.88;;;;;;;-149.78;100.00;50440.16;5035993;28;20108;-62
2022/02/13 06:23:54;;;;;;;6.50;2.72;;;;;;;-149.78;100.00;50422.56;5035751;28;20097;-62
2022/02/13 06:26:20;;;;;;;7.47;2.97;;;;;;;-149.78;100.00;50424.50;5035547;28;20044;-62
2022/02/13 06:28:45;;;;;;;6.07;3.03;;;;;;;-149.78;100.00;50459.72;5052546;28;20384;-62
2022/02/13 06:31:12;;;;;;;6.65;2.67;;;;;;;-149.78;100.00;50455.81;5041301;28;20068;-62
2022/02/13 06:33:39;;;;;;;8.00;2.97;;;;;;;-149.78;100.00;50444.06;5039187;28;20040;-62
2022/02/13 06:36:05;;;;;;;5.13;2.83;;;;;;;-149.78;100.00;50440.16;5039702;28;20038;-62
2022/02/13 06:38:31;;;;;;;8.02;3.28;;;;;;;-149.78;100.00;50412.78;5051000;28;20469;-62
2022/02/13 06:40:57;;;;;;;10.05;3.30;;;;;;;-149.78;100.00;50428.41;5041558;28;20041;-66
2022/02/13 06:43:23;;;;;;;6.78;3.17;;;;;;;-149.78;100.00;50412.78;5035893;28;20029;-66
2022/02/13 06:45:48;;;;;;;7.82;3.55;;;;;;;-149.78;100.00;50428.41;5041767;28;20041;-67
2022/02/13 06:48:14;;;;;;;6.78;3.40;;;;;;;-149.78;100.00;50440.16;5042149;28;20138;-66
2022/02/13 06:50:40;;;;;;;11.65;3.65;;;;;;;-149.78;100.00;50471.44;5035333;28;20046;-66
2022/02/13 06:53:05;;;;;;;9.35;3.72;;;;;;;-149.78;100.00;50436.25;5017457;28;20048;-66
2022/02/13 06:55:31;;;;;;;12.18;4.03;;;;;;;-149.78;100.00;50428.41;5040868;28;20129;-66
2022/02/13 06:57:57;;;;;;;9.57;3.88;;;;;;;-149.78;100.00;50447.97;5051059;28;20108;-62
2022/02/13 07:00:22;;;;;;;12.32;3.72;;;;;;;-149.78;100.00;50418.63;5046619;28;20119;-62
2022/02/13 07:02:48;;;;;;;9.32;3.15;;;;;;;-149.78;100.00;50412.78;5052582;28;20025;-62
2022/02/13 07:05:14;;;;;;;9.32;3.30;;;;;;;-149.78;100.00;50447.97;5039806;28;20036;-66
2022/02/13 07:07:41;;;;;;;8.07;3.03;;;;;;;-149.78;100.00;50432.31;5036093;28;20040;-66
2022/02/13 07:10:10;;;;;;;7.68;3.13;;;;;;;-149.78;100.00;50430.38;5034660;28;20068;-66
2022/02/13 07:12:36;;;;;;;10.45;3.90;;;;;;;-149.78;100.00;50397.13;5046604;28;20040;-66
2022/02/13 07:15:03;;;;;;;7.63;3.45;;;;;;;-149.78;100.00;50430.38;5047830;28;20037;-66
2022/02/13 07:17:28;;;;;;;9.00;3.40;;;;;;;-149.78;100.00;50457.75;5046317;28;20025;-66
2022/02/13 07:19:54;;;;;;;8.85;3.90;;;;;;;-149.78;100.00;50436.25;5048780;28;20502;-66
2022/02/13 07:22:21;;;;;;;11.55;2.92;;;;;;;-149.78;100.00;50404.94;5045176;28;20357;-66
2022/02/13 07:24:47;;;;;;;6.72;3.28;;;;;;;-149.78;100.00;50404.94;5033787;28;20041;-66
2022/02/13 07:27:13;;;;;;;7.00;2.90;;;;;;;-149.78;100.00;50451.88;5033024;28;20053;-66
2022/02/13 07:29:38;;;;;;;10.77;3.10;;;;;;;-149.78;100.00;50424.50;5030495;28;20033;-66
2022/02/13 07:32:04;;;;;;;8.55;3.22;;;;;;;-149.78;100.00;50436.25;5033090;28;20480;-66
2022/02/13 07:34:30;;;;;;;7.53;2.85;;;;;;;-149.78;100.00;50451.88;5033090;28;20033;-65
2022/02/13 07:37:01;;;;;;;9.95;3.28;;;;;;;-149.78;100.00;50420.59;5030822;28;20784;-61
2022/02/13 07:39:31;;;;;;;8.35;2.90;;;;;;;-149.78;100.00;50444.06;5030002;28;20068;-62
2022/02/13 07:41:57;;;;;;;10.65;3.28;;;;;;;-149.78;100.00;50420.59;5032769;28;20044;-65
2022/02/13 07:44:24;;;;;;;7.22;3.22;;;;;;;-149.78;100.00;50447.97;5036902;28;20036;-61
2022/02/13 07:46:49;;;;;;;11.05;3.25;;;;;;;-149.78;100.00;50453.84;5029416;28;20033;-62
2022/02/13 07:49:16;;;;;;;7.38;2.92;;;;;;;-149.78;100.00;50420.59;5030713;28;20029;-62
2022/02/13 07:51:42;;;;;;;12.85;3.97;;;;;;;-149.78;100.00;50457.75;5027862;28;20080;-62
2022/02/13 07:54:08;;;;;;;13.30;5.53;;;;;;;-149.78;100.00;50451.88;5029050;28;20049;-62
2022/02/13 07:56:34;;;;;;;7.07;2.92;;;;;;;-149.78;100.00;50416.69;5029917;28;20048;-62
2022/02/13 07:59:00;;;;;;;7.18;2.90;;;;;;;-149.78;100.00;50424.50;5034825;28;20034;-62
2022/02/13 08:01:26;;;;;;;10.32;3.00;;;;;;;-149.78;100.00;50459.72;5039568;28;20084;-62
2022/02/13 08:03:51;;;;;;;7.95;3.00;;;;;;;-149.78;100.00;50475.34;5033443;28;20029;-62
2022/02/13 08:06:18;;;;;;;7.45;2.35;;;;;;;-149.78;100.00;50457.75;5029114;28;20029;-66
2022/02/13 08:08:51;;;;;;;5.55;2.40;;;;;;;-149.78;100.00;50436.25;5030647;28;20115;-65
2022/02/13 08:11:18;;;;;;;7.93;3.03;;;;;;;-149.78;100.00;50463.63;5030805;28;20037;-65
2022/02/13 08:13:44;;;;;;;5.85;2.60;;;;;;;-149.78;100.00;50432.31;5030886;28;20124;-66
2022/02/13 08:16:10;;;;;;;4.85;2.30;;;;;;;-149.78;100.00;50453.84;5029328;28;20032;-66
2022/02/13 08:18:39;;;;;;;9.50;2.25;;;;;;;-149.78;100.00;50408.84;5030767;28;20033;-65
2022/02/13 08:21:06;;;;;;;5.63;2.20;;;;;;;-149.78;100.00;50416.69;5031237;28;20124;-66
2022/02/13 08:23:32;;;;;;;6.88;2.40;;;;;;;-149.78;100.00;50412.78;5030650;28;20540;-65
2022/02/13 08:25:58;;;;;;;6.93;2.38;;;;;;;-149.78;100.00;50416.69;5032002;28;20212;-61
2022/02/13 08:28:24;;;;;;;8.73;2.38;;;;;;;-149.78;100.00;50420.59;5030238;28;20144;-68
2022/02/13 08:30:50;;;;;;;10.35;2.05;;;;;;;-149.78;100.00;50412.78;5030973;28;20096;-67
2022/02/13 08:33:16;;;;;;;5.00;2.08;;;;;;;-149.78;100.00;50447.97;5037323;28;20037;-66
2022/02/13 08:35:42;;;;;;;7.00;2.33;;;;;;;-149.78;100.00;50438.19;5037216;28;20034;-67
2022/02/13 08:38:08;;;;;;;5.80;2.40;;;;;;;-149.78;100.00;50418.63;5035771;28;20112;-65
2022/02/13 08:40:34;;;;;;;7.18;2.50;;;;;;;-149.78;100.00;50424.50;5039257;28;20036;-66
2022/02/13 08:43:01;;;;;;;8.63;2.30;;;;;;;-149.78;100.00;50461.66;5041075;28;20017;-65
2022/02/13 08:45:28;;;;;;;5.95;2.70;;;;;;;-149.78;100.00;50463.63;5036053;28;20040;-65
2022/02/13 08:47:54;;;;;;;6.20;2.50;;;;;;;-149.78;100.00;50418.63;5040113;28;20533;-65
2022/02/13 08:50:20;;;;;;;5.18;2.20;;;;;;;-149.78;100.00;50463.63;5035013;28;20120;-65
2022/02/13 08:52:45;;;;;;;4.28;2.38;;;;;;;-149.78;100.00;50463.63;5040190;28;20563;-65
2022/02/13 08:55:14;;;;;;;9.10;2.80;;;;;;;-149.78;100.00;50424.50;5034767;28;20032;-65
2022/02/13 08:57:41;;;;;;;7.75;2.58;;;;;;;-149.78;100.00;50426.47;5036517;28;20125;-65
2022/02/13 09:00:08;;;;;;;5.45;2.10;;;;;;;-149.78;100.00;50463.63;5033915;28;20500;-65
2022/02/13 09:02:35;;;;;;;8.10;2.38;;;;;;;-149.78;100.00;50455.81;5041855;28;20060;-65
2022/02/13 09:05:02;;;;;;;6.63;2.38;;;;;;;-149.78;100.00;50447.97;5046970;28;20056;-65
2022/02/13 09:07:29;;;;;;;6.53;2.20;;;;;;;-149.78;100.00;50440.16;5041558;28;20095;-62
2022/02/13 09:09:54;;;;;;;9.15;3.22;;;;;;;-149.78;100.00;50416.69;5037485;28;20376;-62
2022/02/13 09:12:21;;;;;;;9.63;2.67;;;;;;;-149.78;100.00;50471.44;5041295;28;20044;-62
2022/02/13 09:14:48;;;;;;;11.63;2.80;;;;;;;-149.78;100.00;50440.16;5036329;28;20484;-62
2022/02/13 09:17:15;;;;;;;5.75;2.67;;;;;;;-149.78;100.00;50451.88;5040081;28;20120;-62
2022/02/13 09:19:41;;;;;;;5.65;3.30;;;;;;;-149.78;100.00;50459.72;5037413;28;20042;-62
2022/02/13 09:22:08;;;;;;;12.80;2.45;;;;;;;-149.78;100.00;50471.44;5043788;28;20029;-65
2022/02/13 09:24:34;;;;;;;13.10;3.50;;;;;;;-149.78;100.00;50416.69;5036244;28;20363;-66
2022/02/13 09:27:01;;;;;;;10.30;3.15;;;;;;;-149.78;100.00;50401.03;5036197;28;20049;-65
2022/02/13 09:29:27;;;;;;;11.55;3.63;;;;;;;-149.78;100.00;50463.63;5036160;28;20040;-64
2022/02/13 09:31:53;;;;;;;6.45;2.67;;;;;;;-149.78;100.00;50436.25;5034395;28;20033;-65
2022/02/13 09:34:25;;;;;;;12.32;2.75;;;;;;;-149.78;100.00;50461.66;5042986;28;20034;-65
2022/02/13 09:36:51;;;;;;;;;;;;;;;-149.78;100.00;50420.59;5035166;28;20102;-65
2022/02/13 09:39:16;;;;;;;9.23;2.85;;;;;;;-149.78;100.00;50424.50;5044917;28;19958;-65
2022/02/13 09:41:43;;;;;;;6.93;2.40;;;;;;;-149.78;100.00;50447.97;5039718;28;20029;-68
2022/02/13 09:44:09;;;;;;;14.93;3.38;;;;;;;-149.78;100.00;50424.50;5043854;28;20037;-66
2022/02/13 09:46:36;;;;;;;9.50;2.55;;;;;;;-149.78;100.00;50451.88;5052175;28;20037;-65
2022/02/13 09:49:07;;;;;;;12.15;2.92;;;;;;;-149.78;100.00;50447.97;5042940;28;20037;-65
2022/02/13 09:51:34;;;;;;;11.13;3.60;;;;;;;-149.78;100.00;50453.84;5034347;28;20067;-62
2022/02/13 09:54:00;;;;;;;10.38;3.15;;;;;;;-149.78;100.00;50461.66;5041843;28;20159;-62
2022/02/13 09:56:25;;;;;;;12.50;3.35;;;;;;;-149.78;100.00;50440.16;5052838;28;20115;-65
2022/02/13 09:58:51;;;;;;;6.80;3.45;;;;;;;-149.78;100.00;50447.97;5043418;28;20044;-65
2022/02/13 10:01:17;;;;;;;13.85;3.00;;;;;;;-149.78;100.00;50491.00;5040266;28;20041;-65
2022/02/13 10:03:46;;;;;;;5.50;2.55;;;;;;;-149.78;100.00;50436.25;5042699;28;20029;-67
2022/02/13 10:06:12;;;;;;;10.43;2.88;;;;;;;-149.78;100.00;50455.81;5041277;28;20417;-66
2022/02/13 10:08:41;;;;;;;13.60;3.05;;;;;;;-149.78;100.00;50487.09;5057097;28;20048;-66
2022/02/13 10:11:08;;;;;;;7.85;2.60;;;;;;;-149.78;100.00;50440.16;5042281;28;20029;-66
2022/02/13 10:14:04;;;;;;;8.70;2.35;;;;;;;-149.78;100.00;50424.50;5047194;28;20038;-66
2022/02/13 10:16:38;;;;;;;10.70;2.90;;;;;;;-149.78;100.00;50440.16;5034737;28;20048;-66
2022/02/13 10:19:06;;;;;;;10.85;2.60;;;;;;;-149.78;100.00;50444.06;5036734;28;20041;-66
2022/02/13 10:21:34;;;;;;;10.30;2.50;;;;;;;-149.78;100.00;50447.97;5036539;28;20036;-66
2022/02/13 10:24:29;;;;;;;9.57;2.42;;;;;;;-149.78;100.00;50412.78;5037462;28;20059;-66
2022/02/13 10:26:57;;;;;;;7.50;2.35;;;;;;;-149.78;100.00;50471.44;5040826;28;20120;-66
2022/02/13 10:29:28;;;;;;;8.90;2.38;;;;;;;-149.78;100.00;50440.16;5044158;28;20037;-66
2022/02/13 10:32:16;;;;;;;10.07;2.95;;;;;;;-149.78;100.00;50436.25;5036440;28;20063;-66
2022/02/13 10:35:07;;;;;;;8.25;2.30;;;;;;;-149.78;100.00;50475.34;5040517;28;20028;-72
2022/02/13 10:37:56;;;;;;;6.85;2.67;;;;;;;-149.78;100.00;50432.31;5047068;28;20110;-67
2022/02/13 10:40:25;;;;;;;11.77;2.50;;;;;;;-149.78;100.00;50424.50;5044960;28;20033;-65
2022/02/13 10:43:11;;;;;;;8.65;3.00;;;;;;;-149.78;100.00;50455.81;5040952;28;20071;-66
2022/02/13 10:45:39;;;;;;;7.72;2.20;;;;;;;-149.78;100.00;50434.28;5044189;28;20453;-66
2022/02/13 10:48:06;;;;;;;4.80;2.10;;;;;;;-149.78;100.00;50457.75;5039235;28;20040;-67
2022/02/13 10:50:37;;;;;;;7.82;2.10;;;;;;;-149.78;100.00;50434.28;5044602;28;20082;-67
2022/02/13 10:53:04;;;;;;;13.00;2.47;;;;;;;-149.78;100.00;50473.41;5042004;28;20073;-66
2022/02/13 10:55:32;;;;;;;5.68;2.30;;;;;;;-149.78;100.00;50463.63;5045123;28;20441;-65
2022/02/13 10:57:59;;;;;;;7.72;2.33;;;;;;;-149.78;100.00;50447.97;5033524;28;20040;-66
2022/02/13 11:00:30;;;;;;;7.40;2.13;;;;;;;-149.78;100.00;50447.97;5045159;28;20491;-67
2022/02/13 11:03:04;;;;;;;7.53;2.25;;;;;;;-149.78;100.00;50471.44;5043586;28;20124;-67
2022/02/13 11:05:32;;;;;;;7.95;2.42;;;;;;;-149.78;100.00;50455.81;5042035;28;20495;-65